Latest Weather Observations for Mount Keith

IDW60801

Issued at 8:02 am WST Friday 27 May 2016 (issued every 30 minutes, with the page automatically refreshed every 10 minutes)

About weather observations | Map of weather stations | Latest weather observations for WA | Other Formats
Station Details ID: 512019 Name: MOUNT KEITH Lat: -27.29 Lon: 120.55 Height: 542.33 m
Data from the previous 72 hours. | See also: Recent months for locations in Western Australia
Date/Time
WST
Temp
°C
App
Temp
°C
Dew
Point
Rel
Hum
%
Delta-T
°C
Wind Press
QNH
hPa
Press
MSL
hPa
Rain
since 9 am
mm
Dir
 
Spd
km/h
Gust
km/h
Spd
kts
Gust
kts
27/08:00am 14.0 10.9 9.0 72 2.6 E 15 20 8 11 1023.5 1022.1 0.2
27/07:30am 13.2 11.8 9.6 79 1.9 ENE 7 11 4 6 1023.1 1021.6 0.2
27/07:00am 11.9 10.1 9.3 84 1.3 E 9 11 5 6 1023.0 1021.5 0.2
27/06:30am 12.3 10.5 9.3 82 1.6 ESE 9 11 5 6 1023.1 1021.6 0.2
27/06:00am 12.7 10.5 9.5 81 1.7 SE 11 17 6 9 1023.0 1021.5 0.2
27/05:30am 12.6 10.1 9.6 82 1.6 SE 13 19 7 10 1022.7 1021.3 0.2
27/05:00am 12.7 9.9 9.9 83 1.5 SSE 15 20 8 11 1022.5 1021.1 0.2
27/04:30am 12.8 9.1 10.2 84 1.4 SSE 20 28 11 15 1022.2 1020.8 0.0
27/04:00am 13.0 10.3 10.4 84 1.4 SSE 15 20 8 11 1022.2 1020.8 0.0
27/03:30am 13.2 11.0 10.7 85 1.3 SE 13 17 7 9 1022.1 1020.7 0.0
27/03:00am 13.1 10.9 10.8 86 1.2 ESE 13 17 7 9 1022.0 1020.6 0.0
27/02:30am 13.3 11.2 11.0 86 1.2 SSE 13 17 7 9 1022.4 1021.0 0.0
27/02:00am 13.3 11.8 10.7 84 1.4 E 9 15 5 8 1022.8 1021.4 0.0
27/01:30am 13.4 11.9 10.6 83 1.5 E 9 13 5 7 1022.8 1021.4 0.0
27/01:00am 14.0 12.8 10.2 78 2.0 SE 7 11 4 6 1023.2 1021.7 0.0
27/12:30am 14.7 12.1 9.5 71 2.8 SSE 13 20 7 11 1023.4 1022.0 0.0
27/12:00am 14.8 11.1 9.4 70 2.8 S 19 26 10 14 1023.4 1022.0 0.0
 
Date/Time
WST
Temp
°C
App
Temp
°C
Dew
Point
Rel
Hum
%
Delta-T
°C
Wind Press
QNH
hPa
Press
MSL
hPa
Rain
since 9 am
mm
Dir
 
Spd
km/h
Gust
km/h
Spd
kts
Gust
kts
26/11:30pm 15.0 11.6 9.1 68 3.1 SSE 17 22 9 12 1023.2 1021.7 0.0
26/11:00pm 15.2 11.4 9.1 67 3.2 S 19 26 10 14 1023.8 1022.4 0.0
26/10:30pm 15.4 12.5 9.5 68 3.1 SSE 15 20 8 11 1023.1 1021.6 0.0
26/10:00pm 15.5 12.2 9.4 67 3.2 S 17 22 9 12 1022.8 1021.4 0.0
26/09:30pm 15.6 13.7 9.1 65 3.4 S 9 11 5 6 1023.0 1021.5 0.0
26/09:00pm 15.9 12.9 9.1 64 3.6 S 15 20 8 11 1022.4 1021.0 0.0
26/08:30pm 16.2 13.1 8.9 62 3.9 S 15 20 8 11 1022.5 1021.1 0.0
26/08:00pm 16.5 13.4 9.0 61 4.0 S 15 17 8 9 1022.1 1020.7 0.0
26/07:30pm 16.7 13.2 8.9 60 4.1 S 17 24 9 13 1021.8 1020.4 0.0
26/07:00pm 17.1 13.5 8.5 57 4.5 S 17 24 9 13 1021.1 1019.6 0.0
26/06:30pm 17.4 13.8 8.5 56 4.7 S 17 20 9 11 1020.8 1019.4 0.0
26/06:00pm 17.6 14.4 8.5 55 4.8 S 15 20 8 11 1020.7 1019.3 0.0
26/05:30pm 17.9 14.6 8.2 53 5.1 S 15 20 8 11 1020.2 1018.8 0.0
26/05:00pm 18.2 14.9 7.9 51 5.4 S 15 20 8 11 1019.7 1018.2 0.0
26/04:30pm 18.8 15.0 7.6 48 5.9 S 17 20 9 11 1019.5 1018.0 0.0
26/04:00pm 19.1 15.2 7.2 46 6.2 S 17 24 9 13 1019.1 1017.6 0.0
26/03:30pm 19.5 15.6 7.3 45 6.4 S 17 28 9 15 1019.1 1017.6 0.0
26/03:00pm 19.7 15.4 7.1 44 6.6 SSW 19 28 10 15 1019.0 1017.5 0.0
26/02:30pm 19.7 15.7 6.8 43 6.7 SW 17 28 9 15 1018.5 1017.1 0.0
26/02:00pm 20.4 16.0 6.7 41 7.1 SSW 19 28 10 15 1018.4 1017.0 0.0
26/01:30pm 20.0 16.5 7.4 44 6.6 S 15 26 8 14 1018.5 1017.1 0.0
26/01:00pm 19.5 15.8 7.9 47 6.1 SSW 17 24 9 13 1018.7 1017.3 0.0
26/12:30pm 19.5 16.1 7.6 46 6.3 SSW 15 22 8 12 1018.6 1017.2 0.0
26/12:00pm 18.9 14.3 8.0 49 5.7 S 22 30 12 16 1019.2 1017.7 0.0
26/11:30am 18.2 14.3 8.7 54 5.1 SSW 19 24 10 13 1019.4 1017.9 0.0
26/11:00am 17.9 14.5 9.0 56 4.7 S 17 20 9 11 1019.9 1018.4 0.0
26/10:30am 17.3 14.1 10.0 62 4.0 S 17 22 9 12 1020.2 1018.8 0.0
26/10:00am 16.9 14.5 11.4 70 3.1 S 15 22 8 12 1020.2 1018.8 0.0
26/09:30am 16.3 13.7 11.9 75 2.5 SSW 17 24 9 13 1020.0 1018.6 0.0
26/09:00am 16.3 15.5 12.8 80 2.0 SSW 9 13 5 7 1019.5 1018.0 0.4
26/08:44am 15.3 14.7 13.5 89 1.0 S 9 11 5 6 1019.2 1017.7 0.4
26/08:30am 15.1 14.5 13.6 91 0.9 S 9 11 5 6 1019.2 1017.7 0.4
26/08:00am 14.3 13.6 13.3 94 0.6 S 9 11 5 6 1018.5 1017.1 0.4
26/07:34am 14.5 13.9 13.5 94 0.6 SSW 9 13 5 7 1018.1 1016.6 0.4
26/07:30am 14.3 14.0 13.3 94 0.6 S 7 13 4 7 1018.1 1016.6 0.4
26/07:22am 14.1 13.4 13.3 95 0.5 S 9 15 5 8 1017.6 1016.1 0.4
26/07:12am 14.1 13.1 13.3 95 0.5 SSW 11 17 6 9 1018.0 1016.5 0.4
26/07:10am 14.1 13.1 13.3 95 0.5 SSW 11 17 6 9 1017.9 1016.4 0.4
26/07:00am 14.1 13.5 13.5 96 0.3 S 9 13 5 7 1017.7 1016.2 0.4
26/06:30am 14.1 13.9 13.6 97 0.3 SSW 7 9 4 5 1016.9 1015.5 0.4
26/06:00am 14.2 13.7 13.7 97 0.3 SW 9 13 5 7 1016.9 1015.5 0.2
26/05:53am 14.1 13.9 13.6 97 0.3 SW 7 9 4 5 1016.5 1015.0 0.2
26/05:30am 14.2 14.2 13.7 97 0.3 WSW 6 9 3 5 1016.6 1015.1 0.2
26/05:21am 14.1 14.1 13.5 96 0.3 W 6 7 3 4 1016.4 1014.9 0.2
26/05:03am 14.1 13.8 13.3 95 0.5 WSW 7 11 4 6 1016.3 1014.8 0.2
26/05:00am 14.1 13.4 13.3 95 0.5 WSW 9 13 5 7 1016.4 1014.9 0.2
26/04:30am 14.0 13.1 12.7 92 0.7 WSW 9 11 5 6 1016.1 1014.6 0.2
26/04:00am 13.1 13.0 12.0 93 0.6 WNW 4 6 2 3 1015.7 1014.2 0.2
26/03:30am 13.2 12.7 12.1 93 0.6 WNW 6 7 3 4 1015.3 1013.8 0.2
26/03:00am 13.4 14.0 12.0 91 0.8 CALM 0 0 0 0 1015.6 1014.1 0.2
26/02:30am 13.9 14.6 12.3 90 0.9 CALM 0 0 0 0 1015.5 1014.0 0.2
26/02:00am 14.8 14.3 12.8 88 1.1 SSW 7 9 4 5 1015.7 1014.2 0.2
26/01:30am 14.9 14.4 12.8 87 1.2 SW 7 11 4 6 1015.5 1014.0 0.2
26/01:00am 14.6 14.7 12.8 89 1.0 NNE 4 9 2 5 1015.3 1013.8 0.2
26/12:30am 14.7 14.8 12.7 88 1.1 SW 4 7 2 4 1015.2 1013.7 0.2
26/12:00am 15.3 16.2 13.0 86 1.3 CALM 0 0 0 0 1015.9 1014.4 0.2
 
Date/Time
WST
Temp
°C
App
Temp
°C
Dew
Point
Rel
Hum
%
Delta-T
°C
Wind Press
QNH
hPa
Press
MSL
hPa
Rain
since 9 am
mm
Dir
 
Spd
km/h
Gust
km/h
Spd
kts
Gust
kts
25/11:30pm 15.5 16.5 13.2 86 1.3 CALM 0 0 0 0 1016.0 1014.5 0.2
25/11:00pm 15.5 16.5 13.2 86 1.3 CALM 0 0 0 0 1015.9 1014.4 0.2
25/10:30pm 15.6 15.9 13.3 86 1.3 SW 4 6 2 3 1016.2 1014.7 0.2
25/10:00pm 15.7 15.6 13.4 86 1.3 SSW 6 7 3 4 1016.1 1014.6 0.2
25/09:30pm 15.7 15.6 13.4 86 1.3 SSW 6 7 3 4 1016.2 1014.7 0.2
25/09:00pm 15.7 15.6 13.4 86 1.3 SSW 6 9 3 5 1016.0 1014.5 0.2
25/08:30pm 15.7 15.7 13.5 87 1.3 SSW 6 7 3 4 1015.9 1014.4 0.2
25/08:00pm 15.8 15.6 13.5 86 1.3 SSW 7 7 4 4 1015.8 1014.3 0.2
25/07:30pm 15.8 15.2 13.6 87 1.3 SSW 9 11 5 6 1015.8 1014.3 0.2
25/07:01pm 15.9 15.4 13.7 87 1.3 SW 9 11 5 6 1015.7 1014.2 0.2
25/07:00pm 15.9 15.4 13.7 87 1.3 SSW 9 11 5 6 1015.7 1014.2 0.2
25/06:36pm 15.8 14.5 13.8 88 1.2 SW 13 17 7 9 1015.7 1014.2 0.2
25/06:30pm 15.9 15.1 13.9 88 1.2 SW 11 15 6 8 1015.6 1014.1 0.2
25/06:00pm 15.9 15.0 13.7 87 1.3 SW 11 13 6 7 1014.9 1013.4 0.2
25/05:30pm 15.8 14.1 13.6 87 1.3 SSW 15 19 8 10 1014.5 1013.0 0.2
25/05:00pm 16.2 14.2 13.9 86 1.3 SW 17 20 9 11 1014.4 1012.9 0.2
25/04:30pm 16.9 15.4 13.2 79 2.1 SW 13 19 7 10 1014.3 1012.8 0.2
25/04:00pm 17.3 15.7 12.8 75 2.6 SW 13 17 7 9 1014.0 1012.5 0.2
25/03:30pm 17.6 15.7 12.9 74 2.7 SSW 15 19 8 10 1013.8 1012.3 0.2
25/03:00pm 18.2 16.5 12.6 70 3.2 SSW 13 19 7 10 1013.6 1012.1 0.2
25/02:30pm 17.8 16.5 12.5 71 3.0 SW 11 17 6 9 1013.5 1011.9 0.2
25/02:00pm 17.5 15.8 12.6 73 2.8 SW 13 20 7 11 1013.5 1011.9 0.2
25/01:30pm 17.3 15.6 12.6 74 2.7 SSW 13 17 7 9 1013.6 1012.1 0.2
25/01:00pm 17.4 15.4 12.7 74 2.7 SW 15 20 8 11 1013.8 1012.3 0.2
25/12:30pm 16.8 13.8 12.7 77 2.3 SW 20 30 11 16 1013.9 1012.4 0.2
25/12:25pm 16.4 13.0 12.6 78 2.2 SSW 22 30 12 16 1013.9 1012.4 0.2
25/12:00pm 17.1 14.2 12.8 76 2.5 SW 20 28 11 15 1014.1 1012.6 0.2
25/11:30am 16.6 13.7 12.9 79 2.1 SSW 20 28 11 15 1014.4 1012.9 0.2
25/11:19am 16.3 13.7 13.2 82 1.8 SW 19 24 10 13 1014.5 1013.0 0.2
25/11:06am 16.2 12.6 13.1 82 1.8 SSW 24 32 13 17 1014.5 1013.0 0.2
25/11:00am 15.9 12.7 13.0 83 1.7 SSW 22 30 12 16 1014.6 1013.1 0.2
25/10:30am 15.2 11.8 13.6 90 0.9 SSW 24 30 13 16 1014.7 1013.2 0.2
25/10:23am 15.1 11.7 13.6 91 0.9 SSW 24 30 13 16 1014.6 1013.1 0.2
25/10:01am 15.0 12.5 14.0 94 0.6 SSW 20 28 11 15 1014.7 1013.2 0.0
25/10:00am 15.3 12.9 14.3 94 0.6 SSW 20 26 11 14 1014.7 1013.2 0.0
25/09:30am 15.8 13.3 13.6 87 1.3 S 19 26 10 14 1014.2 1012.7 0.0
25/09:05am 15.1 12.8 14.0 93 0.6 S 19 26 10 14 1014.0 1012.5 0.0
25/09:00am 15.1 12.8 14.1 94 0.6 S 19 24 10 13 1013.9 1012.4 0.0
25/08:42am 14.8 12.5 14.0 95 0.5 SSW 19 28 10 15 1013.9 1012.4 0.0
25/08:33am 15.4 14.0 14.4 94 0.6 SSW 15 19 8 10 1013.8 1012.3 0.0
25/08:31am 15.5 14.5 14.5 94 0.6 SSW 13 19 7 10 1013.8 1012.3 0.0
25/08:30am 15.4 14.0 14.4 94 0.6 SSW 15 19 8 10 1013.7 1012.2 0.0
25/08:00am 15.0 13.9 14.2 95 0.5 SW 13 17 7 9 1013.5 1011.9 0.0
25/07:30am 14.7 13.5 14.1 96 0.3 SSW 13 17 7 9 1013.3 1011.7 0.0
25/07:03am 14.9 13.8 14.4 97 0.3 SSW 13 19 7 10 1013.2 1011.6 0.0
25/07:00am 14.9 13.8 14.4 97 0.3 SSW 13 19 7 10 1013.0 1011.5 0.0
25/06:51am 15.0 13.9 14.4 96 0.3 SSW 13 17 7 9 1012.9 1011.4 0.0
25/06:31am 15.1 14.1 14.5 96 0.4 SSW 13 15 7 8 1012.8 1011.3 0.0
25/06:30am 15.1 14.1 14.5 96 0.4 SSW 13 15 7 8 1012.8 1011.3 0.0
25/06:18am 15.1 13.6 14.3 95 0.5 SSW 15 20 8 11 1012.6 1011.1 0.0
25/06:05am 15.8 13.1 14.7 93 0.6 WSW 22 33 12 18 1012.6 1011.1 0.0
25/06:00am 16.6 13.3 15.1 91 0.9 WSW 26 33 14 18 1012.5 1011.0 0.0
25/05:30am 18.2 15.3 12.9 71 3.1 W 20 28 11 15 1012.1 1010.6 0.0
25/05:00am 18.2 15.2 12.6 70 3.2 W 20 30 11 16 1011.8 1010.2 0.0
25/04:30am 18.4 14.4 11.9 66 3.7 WNW 24 35 13 19 1011.7 1010.1 0.0
25/04:00am 18.3 15.5 11.4 64 3.9 W 17 22 9 12 1011.8 1010.2 0.0
25/03:30am 18.5 14.8 10.1 58 4.6 SW 20 30 11 16 1011.7 1010.1 0.0
25/03:00am 20.6 16.3 7.2 42 7.0 W 19 24 10 13 1011.4 1009.8 0.0
25/02:30am 20.4 17.3 7.1 42 7.0 WNW 13 15 7 8 1011.5 1009.9 0.0
25/02:00am 20.3 17.1 7.0 42 7.0 WNW 13 15 7 8 1011.6 1010.0 0.0
25/01:30am 21.2 16.7 6.3 38 7.7 W 19 24 10 13 1011.8 1010.2 0.0
25/01:00am 21.6 17.5 6.3 37 8.0 W 17 22 9 12 1011.8 1010.2 0.0
25/12:30am 21.4 18.4 7.6 41 7.3 WNW 13 19 7 10 1011.9 1010.4 0.0
25/12:00am 22.0 18.7 6.3 36 8.2 NW 13 20 7 11 1012.0 1010.5 0.0
 
Date/Time
WST
Temp
°C
App
Temp
°C
Dew
Point
Rel
Hum
%
Delta-T
°C
Wind Press
QNH
hPa
Press
MSL
hPa
Rain
since 9 am
mm
Dir
 
Spd
km/h
Gust
km/h
Spd
kts
Gust
kts
24/11:30pm 21.1 17.8 6.2 38 7.7 NW 13 19 7 10 1012.0 1010.5 0.0
24/11:00pm 20.7 17.8 6.3 39 7.4 NW 11 17 6 9 1011.9 1010.4 0.0
24/10:30pm 20.8 17.8 6.0 38 7.6 NNW 11 17 6 9 1011.9 1010.4 0.0
24/10:00pm 21.2 18.1 5.6 36 8.0 NNW 11 13 6 7 1012.2 1010.7 0.0
24/09:30pm 22.9 19.1 5.8 33 8.9 NW 15 20 8 11 1012.4 1010.9 0.0
24/09:00pm 23.0 20.0 5.9 33 8.9 NW 11 17 6 9 1012.8 1011.3 0.0
24/08:30pm 23.0 20.4 5.9 33 8.9 NW 9 19 5 10 1012.7 1011.2 0.0
24/08:00pm 23.0 19.9 5.4 32 9.1 WNW 11 15 6 8 1012.8 1011.3 0.0
24/07:30pm 23.7 19.6 4.6 29 9.7 WNW 15 20 8 11 1012.7 1011.2 0.0
24/07:00pm 23.7 18.3 4.6 29 9.7 NW 22 41 12 22 1012.8 1011.3 0.0
24/06:30pm 24.9 19.5 4.6 27 10.4 WNW 22 32 12 17 1012.3 1010.8 0.0
24/06:00pm 25.2 20.1 4.3 26 10.7 NW 20 30 11 16 1011.8 1010.2 0.0
24/05:30pm 25.4 21.0 4.5 26 10.8 NW 17 24 9 13 1011.5 1009.9 0.0
24/05:01pm 25.8 19.2 4.3 25 11.1 NW 28 46 15 25 1011.0 1009.5 0.0
24/05:00pm 25.9 18.8 3.8 24 11.3 NW 30 46 16 25 1011.0 1009.5 0.0
24/04:30pm 26.5 19.5 4.3 24 11.5 NW 30 46 16 25 1010.8 1009.3 0.0
24/04:00pm 27.1 20.4 3.6 22 12.0 NW 28 41 15 22 1010.8 1009.3 0.0
24/03:37pm 27.0 20.4 4.1 23 11.8 NW 28 46 15 25 1010.9 1009.4 0.0
24/03:30pm 27.3 21.1 4.4 23 11.9 NW 26 39 14 21 1010.9 1009.4 0.0
24/03:00pm 27.2 20.0 4.9 24 11.7 NW 32 50 17 27 1010.8 1009.3 0.0
24/02:49pm 27.5 21.2 5.7 25 11.6 NW 28 46 15 25 1010.8 1009.3 0.0
24/02:30pm 27.0 20.2 5.3 25 11.4 NW 30 46 16 25 1010.8 1009.3 0.0
24/02:00pm 26.2 19.1 5.7 27 10.8 NW 32 52 17 28 1011.2 1009.6 0.0
24/01:50pm 26.0 19.7 5.6 27 10.7 NW 28 46 15 25 1011.3 1009.7 0.0
24/01:30pm 25.9 18.9 6.0 28 10.5 NW 32 46 17 25 1011.7 1010.1 0.0
24/01:00pm 25.2 18.6 5.9 29 10.2 NW 30 44 16 24 1012.4 1010.9 0.0
24/12:44pm 24.9 17.8 5.7 29 10.1 NW 32 50 17 27 1012.7 1011.2 0.0
24/12:30pm 24.4 17.6 5.2 29 9.9 NW 30 41 16 22 1013.0 1011.5 0.0
24/12:00pm 25.1 18.7 5.3 28 10.3 NW 28 43 15 23 1013.6 1012.1 0.0
24/11:30am 24.1 17.7 5.0 29 9.8 NW 28 39 15 21 1014.1 1012.6 0.0
24/11:00am 23.6 17.9 5.0 30 9.5 NW 24 35 13 19 1014.7 1013.2 0.0
24/10:30am 22.2 16.6 5.2 33 8.7 NW 24 35 13 19 1015.1 1013.5 0.0
24/10:00am 21.6 16.0 5.5 35 8.2 NNW 24 35 13 19 1015.4 1013.9 0.0
24/09:30am 20.5 14.5 5.3 37 7.7 NNW 26 43 14 23 1015.5 1014.0 0.0
24/09:00am 18.9 13.6 5.0 40 6.9 NNW 22 32 12 17 1015.4 1013.9 0.0
24/08:30am 17.7 12.7 4.6 42 6.4 NNW 20 33 11 18 1015.4 1013.9 0.0

Other Formats:

Comma delimited format used in spreadsheet applications
http://www.bom.gov.au/fwo/IDW60801/IDW60801.99434.axf

JavaScript Object Notation format (JSON) in row-major order
http://www.bom.gov.au/fwo/IDW60801/IDW60801.99434.json